Time;durP1;ratioP1;P1;durP2;ratioP2;P2;SDS_P1;SDS_P2;PMS_P1;PMS_P2;Temp;Humidity;BMP_temperature;BMP_pressure;BME280_temperature;BME280_humidity;BME280_pressure;Samples;Min_cycle;Max_cycle;Signal;HPM_P1;HPM_P2
2022/12/24 00:01:20;;;;;;;;;;;16.80;96.10;;;;;;5078760;28;19998;-93
2022/12/24 00:03:46;;;;;;;;;;;16.70;96.10;;;;;;5077326;28;19919;-93
2022/12/24 00:06:17;;;;;;;;;;;16.70;96.20;;;;;;5076369;28;19912;-93
2022/12/24 00:08:44;;;;;;;;;;;16.70;96.20;;;;;;5109218;28;19912;-93
2022/12/24 00:11:09;;;;;;;;;;;16.70;96.30;;;;;;5108270;28;19908;-93
2022/12/24 00:13:35;;;;;;;;;;;16.60;96.30;;;;;;5074555;28;19919;-93
2022/12/24 00:16:01;;;;;;;;;;;16.60;96.70;;;;;;5076055;28;19908;-92
2022/12/24 00:18:26;;;;;;;;;;;16.60;96.40;;;;;;5110736;28;19916;-93
2022/12/24 00:20:52;;;;;;;;;;;16.60;96.40;;;;;;5077716;28;20205;-93
2022/12/24 00:23:18;;;;;;;;;;;16.60;96.50;;;;;;5110465;28;20380;-93
2022/12/24 00:25:44;;;;;;;;;;;16.60;96.50;;;;;;5077641;28;19919;-92
2022/12/24 00:28:10;;;;;;;;;;;16.60;96.50;;;;;;5111582;28;19919;-92
2022/12/24 00:30:37;;;;;;;;;;;16.60;96.50;;;;;;5112307;28;20064;-93
2022/12/24 00:33:03;;;;;;;;;;;16.60;96.50;;;;;;5113846;28;19923;-92
2022/12/24 00:35:28;;;;;;;;;;;16.60;96.50;;;;;;5112618;28;19932;-93
2022/12/24 00:37:54;;;;;;;;;;;16.60;96.50;;;;;;5077516;28;19947;-93
2022/12/24 00:40:20;;;;;;;;;;;16.60;96.50;;;;;;5078843;28;19933;-93
2022/12/24 00:42:45;;;;;;;;;;;16.60;96.40;;;;;;5078602;28;19916;-93
2022/12/24 00:45:11;;;;;;;;;;;16.60;96.40;;;;;;5077727;28;19912;-92
2022/12/24 00:47:37;;;;;;;;;;;16.60;96.40;;;;;;5111113;28;19919;-93
2022/12/24 00:50:03;;;;;;;;;;;16.60;96.40;;;;;;5077709;28;19908;-92
2022/12/24 00:52:29;;;;;;;;;;;16.60;96.40;;;;;;5111750;28;19915;-91
2022/12/24 00:54:55;;;;;;;;;;;16.60;96.30;;;;;;5076593;28;19908;-92
2022/12/24 00:57:20;;;;;;;;;;;16.60;96.30;;;;;;5076753;28;19919;-93
2022/12/24 00:59:46;;;;;;;;;;;16.60;96.20;;;;;;5078138;28;20320;-93
2022/12/24 01:02:11;;;;;;;;;;;16.60;96.20;;;;;;5077289;28;20341;-93
2022/12/24 01:07:21;;;;;;;;;;;16.60;96.10;;;;;;5094632;28;19915;-92
2022/12/24 01:09:52;;;;;;;;;;;16.60;96.10;;;;;;5076265;28;19912;-93
2022/12/24 01:12:18;;;;;;;;;;;16.60;96.10;;;;;;5084541;28;19989;-93
2022/12/24 01:14:43;;;;;;;;;;;16.60;96.00;;;;;;5079129;28;19918;-93
2022/12/24 01:17:09;;;;;;;;;;;16.60;96.00;;;;;;5075951;28;19973;-92
2022/12/24 01:19:35;;;;;;;;;;;16.60;96.00;;;;;;5110287;28;19908;-93
2022/12/24 01:22:01;;;;;;;;;;;16.60;96.00;;;;;;5076526;28;19943;-93
2022/12/24 01:24:26;;;;;;;;;;;16.60;96.00;;;;;;5078143;28;19908;-93
2022/12/24 01:26:52;;;;;;;;;;;16.60;96.00;;;;;;5110044;28;19908;-93
2022/12/24 01:29:18;;;;;;;;;;;16.60;95.90;;;;;;5077025;28;19908;-92
2022/12/24 01:31:44;;;;;;;;;;;16.60;95.90;;;;;;5111164;28;19908;-93
2022/12/24 01:34:09;;;;;;;;;;;16.60;95.90;;;;;;5077002;28;19916;-92
2022/12/24 01:36:35;;;;;;;;;;;16.60;95.90;;;;;;5077861;28;20281;-92
2022/12/24 01:39:01;;;;;;;;;;;16.60;95.90;;;;;;5111047;28;19908;-93
2022/12/24 01:44:16;;;;;;;;;;;16.50;95.80;;;;;;5094939;28;19922;-93
2022/12/24 01:46:42;;;;;;;;;;;16.50;95.80;;;;;;5112139;28;19916;-93
2022/12/24 01:49:10;;;;;;;;;;;16.50;95.80;;;;;;5106675;28;19908;-93
2022/12/24 01:51:41;;;;;;;;;;;16.50;95.80;;;;;;5112152;28;20270;-93
2022/12/24 01:54:12;;;;;;;;;;;16.50;95.80;;;;;;5111775;28;19912;-93
2022/12/24 01:56:43;;;;;;;;;;;16.50;95.80;;;;;;5112487;28;19955;-93
2022/12/24 01:59:10;;;;;;;;;;;16.50;95.80;;;;;;5111572;28;19944;-92
2022/12/24 02:01:36;;;;;;;;;;;16.50;95.80;;;;;;5111733;28;19924;-93
2022/12/24 02:04:08;;;;;;;;;;;16.50;95.80;;;;;;5076235;28;20113;-92
2022/12/24 02:06:33;;;;;;;;;;;16.50;95.80;;;;;;5112587;28;19908;-91
2022/12/24 02:08:59;;;;;;;;;;;16.50;95.80;;;;;;5079291;28;20154;-93
2022/12/24 02:11:25;;;;;;;;;;;16.50;95.80;;;;;;5078573;28;20202;-93
2022/12/24 02:13:53;;;;;;;;;;;16.50;95.80;;;;;;5079874;28;20171;-93
2022/12/24 02:16:29;;;;;;;;;;;16.50;95.80;;;;;;5115183;28;19908;-93
2022/12/24 02:19:03;;;;;;;;;;;16.40;95.80;;;;;;5115351;28;19919;-92
2022/12/24 02:21:32;;;;;;;;;;;16.40;95.80;;;;;;5081453;28;19955;-92
2022/12/24 02:24:08;;;;;;;;;;;16.40;95.80;;;;;;5080141;28;19915;-93
2022/12/24 02:26:54;;;;;;;;;;;16.40;95.80;;;;;;5114990;28;20277;-93
2022/12/24 02:29:29;;;;;;;;;;;16.40;95.80;;;;;;5114804;28;20003;-93
2022/12/24 02:32:17;;;;;;;;;;;16.40;95.80;;;;;;5115358;28;19908;-93
2022/12/24 02:34:52;;;;;;;;;;;16.40;95.80;;;;;;5052867;28;20256;-92
2022/12/24 02:37:49;;;;;;;;;;;16.40;95.80;;;;;;5114298;28;19908;-92
2022/12/24 02:40:18;;;;;;;;;;;16.40;95.80;;;;;;5063486;28;20019;-93
2022/12/24 02:42:47;;;;;;;;;;;16.40;95.80;;;;;;5114918;28;19912;-93
2022/12/24 02:45:21;;;;;;;;;;;16.40;95.70;;;;;;5114266;28;19956;-93
2022/12/24 02:47:47;;;;;;;;;;;16.40;95.70;;;;;;5113763;28;19908;-93
2022/12/24 02:50:14;;;;;;;;;;;16.30;95.70;;;;;;5114050;28;20288;-93
2022/12/24 02:52:40;;;;;;;;;;;16.30;95.70;;;;;;5113662;28;20259;-92
2022/12/24 02:55:18;;;;;;;;;;;16.30;95.70;;;;;;5114197;28;19908;-92
2022/12/24 02:57:53;;;;;;;;;;;16.30;95.70;;;;;;5114723;28;19909;-92
2022/12/24 03:00:19;;;;;;;;;;;16.30;95.70;;;;;;5080692;28;20233;-92
2022/12/24 03:03:06;;;;;;;;;;;16.30;95.70;;;;;;5114229;28;19912;-92
2022/12/24 03:05:35;;;;;;;;;;;16.30;95.70;;;;;;5113529;28;20208;-92
2022/12/24 03:08:16;;;;;;;;;;;16.30;95.70;;;;;;5080769;28;19913;-92
2022/12/24 03:10:51;;;;;;;;;;;16.30;95.70;;;;;;5113776;28;19908;-92
2022/12/24 03:13:18;;;;;;;;;;;16.30;95.70;;;;;;5080463;28;20235;-92
2022/12/24 03:15:44;;;;;;;;;;;16.30;95.70;;;;;;5113453;28;19967;-93
2022/12/24 03:18:10;;;;;;;;;;;16.30;95.70;;;;;;5112514;28;19908;-93
2022/12/24 03:20:42;;;;;;;;;;;16.30;95.70;;;;;;5114085;28;19973;-92
2022/12/24 03:23:08;;;;;;;;;;;16.30;95.70;;;;;;5114158;28;19912;-93
2022/12/24 03:25:37;;;;;;;;;;;16.30;95.60;;;;;;5114278;28;19931;-93
2022/12/24 03:28:03;;;;;;;;;;;16.30;95.60;;;;;;5114425;28;19908;-93
2022/12/24 03:30:29;;;;;;;;;;;16.30;95.60;;;;;;5114680;28;19973;-93
2022/12/24 03:32:55;;;;;;;;;;;16.20;95.60;;;;;;5114465;28;19923;-93
2022/12/24 03:35:20;;;;;;;;;;;16.20;95.60;;;;;;5098568;28;19957;-93
2022/12/24 03:37:46;;;;;;;;;;;16.20;95.60;;;;;;5081544;28;19908;-92
2022/12/24 03:40:12;;;;;;;;;;;16.20;95.60;;;;;;5080816;28;19908;-93
2022/12/24 03:42:37;;;;;;;;;;;16.20;95.60;;;;;;5081921;28;19977;-93
2022/12/24 03:45:03;;;;;;;;;;;16.20;95.60;;;;;;5081658;28;19935;-92
2022/12/24 03:47:29;;;;;;;;;;;16.20;95.60;;;;;;5115712;28;19918;-93
2022/12/24 03:49:56;;;;;;;;;;;16.20;95.60;;;;;;5114797;28;20257;-90
2022/12/24 03:52:22;;;;;;;;;;;16.20;95.60;;;;;;5081222;28;20006;-90
2022/12/24 03:54:47;;;;;;;;;;;16.20;95.60;;;;;;5080149;28;19999;-90
2022/12/24 03:57:13;;;;;;;;;;;16.20;95.60;;;;;;5081341;28;19909;-91
2022/12/24 03:59:39;;;;;;;;;;;16.20;95.60;;;;;;5098190;28;20045;-91
2022/12/24 04:02:04;;;;;;;;;;;16.20;95.50;;;;;;5080856;28;19912;-91
2022/12/24 04:04:32;;;;;;;;;;;16.10;95.50;;;;;;5080476;28;19908;-90
2022/12/24 04:06:58;;;;;;;;;;;16.10;95.80;;;;;;5080883;28;19915;-91
2022/12/24 04:09:24;;;;;;;;;;;16.10;95.50;;;;;;5112995;28;19908;-91
2022/12/24 04:11:49;;;;;;;;;;;16.10;95.50;;;;;;5112997;28;20003;-90
2022/12/24 04:14:15;;;;;;;;;;;16.10;95.50;;;;;;5078767;28;20177;-89
2022/12/24 04:16:41;;;;;;;;;;;16.10;95.60;;;;;;5079592;28;19908;-89
2022/12/24 04:19:06;;;;;;;;;;;16.10;95.60;;;;;;5078888;28;19918;-90
2022/12/24 04:21:32;;;;;;;;;;;16.10;95.60;;;;;;5079157;28;19908;-90
2022/12/24 04:23:57;;;;;;;;;;;16.10;95.60;;;;;;5078603;28;19908;-89
2022/12/24 04:26:23;;;;;;;;;;;16.10;95.60;;;;;;5078244;28;19951;-90
2022/12/24 04:28:49;;;;;;;;;;;16.10;95.60;;;;;;5078551;28;19955;-90
2022/12/24 04:31:15;;;;;;;;;;;16.10;95.60;;;;;;5078047;28;19908;-90
2022/12/24 04:33:43;;;;;;;;;;;16.10;95.60;;;;;;5094004;28;21951;-90
2022/12/24 04:36:10;;;;;;;;;;;16.10;95.60;;;;;;5110504;28;19912;-90
2022/12/24 04:38:36;;;;;;;;;;;16.00;95.50;;;;;;5109773;28;19912;-90
2022/12/24 04:41:03;;;;;;;;;;;16.10;95.60;;;;;;5076283;28;19918;-90
2022/12/24 04:43:30;;;;;;;;;;;16.00;95.60;;;;;;5110390;28;19912;-91
2022/12/24 04:45:56;;;;;;;;;;;16.00;95.60;;;;;;5111575;28;19916;-91
2022/12/24 04:48:21;;;;;;;;;;;16.00;95.60;;;;;;5111305;28;19908;-90
2022/12/24 04:50:47;;;;;;;;;;;16.00;95.60;;;;;;5078007;28;19908;-90
2022/12/24 04:53:13;;;;;;;;;;;16.00;95.60;;;;;;5087615;28;19916;-90
2022/12/24 04:55:43;;;;;;;;;;;16.00;95.60;;;;;;5079132;28;19919;-91
2022/12/24 04:58:08;;;;;;;;;;;16.00;95.60;;;;;;5111664;28;19916;-90
2022/12/24 05:00:34;;;;;;;;;;;16.00;95.60;;;;;;5078731;28;20174;-90
2022/12/24 05:03:00;;;;;;;;;;;16.00;95.60;;;;;;5077449;28;20174;-90
2022/12/24 05:05:25;;;;;;;;;;;15.90;95.60;;;;;;5079589;28;19919;-90
2022/12/24 05:07:51;;;;;;;;;;;16.00;95.60;;;;;;5077418;28;19908;-91
2022/12/24 05:10:16;;;;;;;;;;;16.00;95.60;;;;;;5078271;28;19919;-90
2022/12/24 05:12:42;;;;;;;;;;;16.00;95.60;;;;;;5078693;28;20162;-90
2022/12/24 05:15:08;;;;;;;;;;;16.00;95.60;;;;;;5078804;28;19961;-90
2022/12/24 05:17:33;;;;;;;;;;;15.90;95.50;;;;;;5112379;28;19982;-90
2022/12/24 05:19:59;;;;;;;;;;;15.90;95.50;;;;;;5078542;28;19911;-90
2022/12/24 05:27:53;;;;;;;;;;;15.90;95.60;;;;;;5095497;28;19918;-91
2022/12/24 05:30:19;;;;;;;;;;;15.90;95.60;;;;;;5077900;28;19908;-89
2022/12/24 05:32:44;;;;;;;;;;;15.90;95.60;;;;;;5078045;28;19924;-91
2022/12/24 05:35:10;;;;;;;;;;;15.90;95.70;;;;;;5078408;28;19908;-90
2022/12/24 05:37:36;;;;;;;;;;;16.30;94.60;;;;;;5077889;28;19916;-90
2022/12/24 05:40:01;;;;;;;;;;;17.30;91.90;;;;;;5078642;28;19985;-90
2022/12/24 05:42:27;;;;;;;;;;;18.20;88.10;;;;;;5076898;28;19928;-90
2022/12/24 05:44:52;;;;;;;;;;;18.50;85.20;;;;;;5078390;28;19923;-90
2022/12/24 05:47:18;;;;;;;;;;;18.60;83.80;;;;;;5077189;28;19912;-90
2022/12/24 05:49:44;;;;;;;;;;;18.80;82.30;;;;;;5077615;28;20246;-90
2022/12/24 05:52:09;;;;;;;;;;;18.90;81.40;;;;;;5077267;28;19972;-90
2022/12/24 05:54:35;;;;;;;;;;;19.00;80.80;;;;;;5077825;28;20194;-90
2022/12/24 05:57:01;;;;;;;;;;;19.00;79.80;;;;;;5077061;28;20277;-90
2022/12/24 05:59:27;;;;;;;;;;;19.10;79.30;;;;;;5077814;28;19908;-89
2022/12/24 06:01:52;;;;;;;;;;;19.10;78.90;;;;;;5110869;28;19923;-90
2022/12/24 06:04:18;;;;;;;;;;;19.10;78.90;;;;;;5077418;28;19935;-90
2022/12/24 06:06:44;;;;;;;;;;;19.10;79.00;;;;;;5076901;28;20170;-90
2022/12/24 06:09:09;;;;;;;;;;;19.00;79.30;;;;;;5077423;28;20228;-90
2022/12/24 06:11:35;;;;;;;;;;;18.90;79.90;;;;;;5076747;28;19915;-89
2022/12/24 06:14:00;;;;;;;;;;;18.80;80.30;;;;;;5077796;28;19908;-90
2022/12/24 06:16:26;;;;;;;;;;;18.70;81.00;;;;;;5077287;28;19915;-89
2022/12/24 06:18:53;;;;;;;;;;;18.60;81.50;;;;;;5077369;28;19916;-90
2022/12/24 06:21:18;;;;;;;;;;;18.60;82.10;;;;;;5110977;28;20449;-90
2022/12/24 06:23:44;;;;;;;;;;;18.50;82.60;;;;;;5110108;28;20015;-90
2022/12/24 06:26:20;;;;;;;;;;;18.40;83.20;;;;;;5110230;28;19912;-91
2022/12/24 06:28:47;;;;;;;;;;;18.30;83.60;;;;;;5109657;28;19934;-90
2022/12/24 06:31:14;;;;;;;;;;;18.20;84.30;;;;;;5109049;28;19908;-90
2022/12/24 06:33:40;;;;;;;;;;;18.10;84.80;;;;;;5110513;28;19931;-91
2022/12/24 06:36:06;;;;;;;;;;;18.10;85.40;;;;;;5075709;28;19908;-90
2022/12/24 06:38:32;;;;;;;;;;;18.00;85.90;;;;;;5110413;28;20266;-90
2022/12/24 06:40:58;;;;;;;;;;;17.90;86.50;;;;;;5076009;28;19994;-90
2022/12/24 06:43:24;;;;;;;;;;;17.80;87.10;;;;;;5110403;28;19912;-89
2022/12/24 06:45:50;;;;;;;;;;;17.80;87.60;;;;;;5110990;28;20186;-89
2022/12/24 06:48:15;;;;;;;;;;;17.70;88.10;;;;;;5076886;28;19973;-89
2022/12/24 06:50:42;;;;;;;;;;;17.60;88.60;;;;;;5110879;28;19908;-90
2022/12/24 06:53:08;;;;;;;;;;;17.50;89.20;;;;;;5112150;28;19957;-89
2022/12/24 06:55:33;;;;;;;;;;;17.50;89.90;;;;;;5113308;28;20299;-90
2022/12/24 06:57:59;;;;;;;;;;;17.40;90.10;;;;;;5079754;28;20328;-90
2022/12/24 07:00:25;;;;;;;;;;;17.30;90.30;;;;;;5078443;28;20193;-90
2022/12/24 07:02:50;;;;;;;;;;;17.30;90.60;;;;;;5080792;28;19913;-89
2022/12/24 07:05:16;;;;;;;;;;;17.20;90.80;;;;;;5081003;28;19908;-89
2022/12/24 07:07:43;;;;;;;;;;;17.10;91.00;;;;;;5098206;28;20194;-90
2022/12/24 07:10:13;;;;;;;;;;;17.10;91.20;;;;;;5112547;28;19908;-89
2022/12/24 07:12:39;;;;;;;;;;;17.00;91.40;;;;;;5112925;28;19908;-90
2022/12/24 07:15:05;;;;;;;;;;;16.90;91.60;;;;;;5079978;28;20181;-90
2022/12/24 07:17:30;;;;;;;;;;;16.90;91.80;;;;;;5114071;28;19915;-89
2022/12/24 07:19:56;;;;;;;;;;;16.80;92.00;;;;;;5079229;28;19908;-90
2022/12/24 07:22:22;;;;;;;;;;;16.70;92.20;;;;;;5077789;28;19912;-90
2022/12/24 07:24:47;;;;;;;;;;;16.70;92.30;;;;;;5079188;28;19908;-89
2022/12/24 07:27:13;;;;;;;;;;;16.70;92.30;;;;;;5077135;28;19992;-90
2022/12/24 07:29:40;;;;;;;;;;;16.70;92.30;;;;;;5077061;28;19916;-89
2022/12/24 07:32:05;;;;;;;;;;;16.70;92.30;;;;;;5075901;28;19918;-89
2022/12/24 07:34:31;;;;;;;;;;;16.80;92.20;;;;;;5076778;28;19912;-89
2022/12/24 07:36:56;;;;;;;;;;;16.90;91.90;;;;;;5111036;28;20281;-90
2022/12/24 07:39:22;;;;;;;;;;;17.10;91.40;;;;;;5078088;28;19908;-88
2022/12/24 07:41:49;;;;;;;;;;;17.20;90.90;;;;;;5078286;28;20007;-89
2022/12/24 07:44:15;;;;;;;;;;;17.40;90.30;;;;;;5096152;28;19912;-89
2022/12/24 07:46:41;;;;;;;;;;;17.60;89.20;;;;;;5112340;28;19919;-89
2022/12/24 07:49:07;;;;;;;;;;;17.80;87.40;;;;;;5113223;28;19908;-89
2022/12/24 07:51:32;;;;;;;;;;;18.00;85.60;;;;;;5035679;28;20012;-89
2022/12/24 07:53:58;;;;;;;;;;;18.20;83.90;;;;;;5076526;28;19908;-89
2022/12/24 07:56:23;;;;;;;;;;;18.40;82.70;;;;;;5075385;28;19915;-89
2022/12/24 07:58:50;;;;;;;;;;;18.40;81.80;;;;;;5074819;28;19908;-88
2022/12/24 08:01:16;;;;;;;;;;;18.40;81.40;;;;;;5111719;28;19908;-88
2022/12/24 08:03:41;;;;;;;;;;;18.40;81.30;;;;;;5111862;28;20246;-88
2022/12/24 08:06:07;;;;;;;;;;;18.40;81.30;;;;;;5075945;28;19915;-88
2022/12/24 08:08:33;;;;;;;;;;;18.40;81.30;;;;;;5108107;28;19912;-89
2022/12/24 08:11:02;;;;;;;;;;;18.30;81.60;;;;;;5093141;28;20264;-89
2022/12/24 08:13:27;;;;;;;;;;;18.20;81.90;;;;;;5108485;28;19908;-89
2022/12/24 08:15:53;;;;;;;;;;;18.20;82.20;;;;;;5074536;28;19909;-90
2022/12/24 08:18:20;;;;;;;;;;;18.10;82.70;;;;;;5108681;28;19962;-89
2022/12/24 08:20:46;;;;;;;;;;;18.00;83.30;;;;;;5075169;28;19908;-88
2022/12/24 08:23:11;;;;;;;;;;;18.00;83.70;;;;;;5076106;28;19912;-89
2022/12/24 08:25:40;;;;;;;;;;;17.90;84.10;;;;;;5077067;28;19923;-89
2022/12/24 08:28:06;;;;;;;;;;;17.90;84.70;;;;;;5109936;28;19908;-89
2022/12/24 08:30:32;;;;;;;;;;;17.70;85.20;;;;;;5075562;28;20273;-89
2022/12/24 08:32:57;;;;;;;;;;;17.70;85.90;;;;;;5076783;28;20259;-90
2022/12/24 08:35:23;;;;;;;;;;;17.50;86.50;;;;;;5082464;28;20167;-90
2022/12/24 08:37:49;;;;;;;;;;;17.50;87.30;;;;;;5075107;28;20287;-90
2022/12/24 08:40:14;;;;;;;;;;;17.40;87.90;;;;;;5074224;28;19908;-88
2022/12/24 08:42:40;;;;;;;;;;;17.30;88.30;;;;;;5091012;28;19923;-88
2022/12/24 08:45:06;;;;;;;;;;;17.30;88.80;;;;;;5073894;28;19908;-88
2022/12/24 08:47:31;;;;;;;;;;;17.20;89.10;;;;;;5107966;28;19908;-88
2022/12/24 08:49:57;;;;;;;;;;;17.20;89.40;;;;;;5074884;28;20015;-88
2022/12/24 08:52:22;;;;;;;;;;;17.20;89.60;;;;;;5074879;28;19908;-88
2022/12/24 08:54:48;;;;;;;;;;;17.20;90.10;;;;;;5073483;28;20001;-88
2022/12/24 08:57:14;;;;;;;;;;;17.10;90.30;;;;;;5072827;28;20216;-88
2022/12/24 08:59:39;;;;;;;;;;;17.00;90.60;;;;;;5072387;28;20029;-88
2022/12/24 09:02:05;;;;;;;;;;;17.00;91.10;;;;;;5074551;28;19923;-88
2022/12/24 09:04:30;;;;;;;;;;;16.90;91.30;;;;;;5090950;28;19908;-88
2022/12/24 09:06:56;;;;;;;;;;;16.90;91.40;;;;;;5073667;28;19908;-88
2022/12/24 09:09:22;;;;;;;;;;;17.00;91.50;;;;;;5075343;28;20166;-88
2022/12/24 09:11:47;;;;;;;;;;;17.10;91.50;;;;;;5074381;28;20241;-88
2022/12/24 09:14:13;;;;;;;;;;;17.20;91.40;;;;;;5075950;28;20087;-88
2022/12/24 09:16:39;;;;;;;;;;;17.20;91.30;;;;;;5072569;28;19908;-88
2022/12/24 09:19:04;;;;;;;;;;;17.20;91.30;;;;;;5073298;28;19919;-88
2022/12/24 09:21:30;;;;;;;;;;;17.20;91.30;;;;;;5072720;28;19999;-88
2022/12/24 09:23:56;;;;;;;;;;;17.30;91.30;;;;;;5073755;28;20034;-88
2022/12/24 09:26:23;;;;;;;;;;;17.30;91.20;;;;;;5071970;28;20138;-88
2022/12/24 09:28:49;;;;;;;;;;;17.50;90.80;;;;;;5071771;28;19931;-89
2022/12/24 09:31:15;;;;;;;;;;;17.50;90.50;;;;;;5104735;28;19908;-88
2022/12/24 09:33:43;;;;;;;;;;;17.50;90.50;;;;;;5104709;28;19950;-89
2022/12/24 09:36:09;;;;;;;;;;;17.50;90.40;;;;;;5105918;28;20060;-88
2022/12/24 09:38:35;;;;;;;;;;;17.50;90.50;;;;;;5107238;28;20022;-88
2022/12/24 09:41:00;;;;;;;;;;;17.70;90.30;;;;;;5106456;28;20343;-88
2022/12/24 09:43:29;;;;;;;;;;;17.80;89.80;;;;;;5072348;28;19916;-88
2022/12/24 09:46:04;;;;;;;;;;;17.80;89.50;;;;;;5107501;28;19908;-88
2022/12/24 09:48:32;;;;;;;;;;;17.80;89.70;;;;;;5095103;28;19916;-88
2022/12/24 09:51:00;;;;;;;;;;;17.90;88.90;;;;;;5087764;28;19923;-88
2022/12/24 09:53:34;;;;;;;;;;;17.90;89.00;;;;;;5085708;28;19909;-88
2022/12/24 09:56:01;;;;;;;;;;;17.80;89.50;;;;;;5051220;28;20061;-88
2022/12/24 09:58:40;;;;;;;;;;;17.80;89.70;;;;;;5084884;28;20178;-88
2022/12/24 10:01:09;;;;;;;;;;;17.80;89.90;;;;;;5084676;28;20339;-88
2022/12/24 10:03:35;;;;;;;;;;;17.80;89.30;;;;;;5084144;28;19951;-88
2022/12/24 10:06:01;;;;;;;;;;;17.80;89.70;;;;;;5083936;28;20160;-88
2022/12/24 10:08:39;;;;;;;;;;;17.70;89.90;;;;;;5050561;28;19916;-88
2022/12/24 10:11:17;;;;;;;;;;;17.70;90.20;;;;;;5052058;28;19909;-88
2022/12/24 10:13:43;;;;;;;;;;;17.60;90.30;;;;;;5051393;28;19908;-88
2022/12/24 10:16:34;;;;;;;;;;;17.40;90.60;;;;;;5053719;28;19909;-88
2022/12/24 10:19:19;;;;;;;;;;;17.40;91.00;;;;;;5050588;28;19999;-88
2022/12/24 10:21:45;;;;;;;;;;;17.30;91.30;;;;;;5087610;28;19916;-88
2022/12/24 10:24:21;;;;;;;;;;;17.20;91.50;;;;;;5054222;28;19916;-88
2022/12/24 10:26:49;;;;;;;;;;;17.20;91.60;;;;;;5087661;28;19920;-88
2022/12/24 10:29:15;;;;;;;;;;;17.10;91.80;;;;;;5055408;28;20092;-88
2022/12/24 10:32:07;;;;;;;;;;;17.10;91.90;;;;;;5055840;28;19912;-88
2022/12/24 10:34:37;;;;;;;;;;;17.00;92.00;;;;;;5030894;28;19916;-88
2022/12/24 10:37:03;;;;;;;;;;;17.00;92.10;;;;;;5089355;28;19958;-88
2022/12/24 10:39:29;;;;;;;;;;;17.00;92.20;;;;;;5072106;28;20285;-88
2022/12/24 10:41:56;;;;;;;;;;;16.90;92.30;;;;;;5089068;28;19908;-88
2022/12/24 10:44:24;;;;;;;;;;;17.00;92.40;;;;;;5088353;28;19973;-88
2022/12/24 10:46:49;;;;;;;;;;;17.00;92.40;;;;;;5086478;28;19970;-89
2022/12/24 10:49:17;;;;;;;;;;;17.10;92.10;;;;;;5069367;28;20081;-89
2022/12/24 10:51:46;;;;;;;;;;;17.10;92.10;;;;;;5086155;28;19913;-89
2022/12/24 10:54:14;;;;;;;;;;;17.20;92.00;;;;;;5072858;28;19908;-89
2022/12/24 10:56:42;;;;;;;;;;;17.30;91.70;;;;;;5087835;28;19969;-89
2022/12/24 10:59:21;;;;;;;;;;;17.50;91.40;;;;;;5070946;28;20389;-89
2022/12/24 11:01:48;;;;;;;;;;;17.60;91.00;;;;;;5087841;28;19916;-89
2022/12/24 11:04:18;;;;;;;;;;;17.80;90.70;;;;;;5086664;28;20050;-89
2022/12/24 11:06:54;;;;;;;;;;;17.90;90.20;;;;;;5089039;28;19924;-89
2022/12/24 11:09:25;;;;;;;;;;;18.00;89.60;;;;;;5088920;28;20185;-89
2022/12/24 11:11:51;;;;;;;;;;;18.10;89.10;;;;;;5087246;28;20239;-89
2022/12/24 11:14:18;;;;;;;;;;;18.10;88.90;;;;;;5085846;28;20010;-89
2022/12/24 11:16:48;;;;;;;;;;;18.20;88.80;;;;;;5087322;28;20334;-89
2022/12/24 11:19:18;;;;;;;;;;;18.20;88.90;;;;;;5083830;28;19909;-89
2022/12/24 11:21:44;;;;;;;;;;;18.20;88.50;;;;;;5086907;28;19920;-89
2022/12/24 11:24:23;;;;;;;;;;;18.30;88.70;;;;;;5052794;28;20260;-89
2022/12/24 11:26:49;;;;;;;;;;;18.30;88.40;;;;;;5086351;28;19908;-89
2022/12/24 11:29:22;;;;;;;;;;;18.30;88.10;;;;;;5052475;28;19912;-89
2022/12/24 11:31:48;;;;;;;;;;;18.30;87.80;;;;;;5085817;28;19908;-89
2022/12/24 11:34:26;;;;;;;;;;;18.20;87.80;;;;;;5087350;28;19929;-89
2022/12/24 11:36:52;;;;;;;;;;;18.20;88.20;;;;;;5053458;28;19920;-89
2022/12/24 11:39:22;;;;;;;;;;;18.10;88.80;;;;;;5086516;28;19917;-90
2022/12/24 11:41:49;;;;;;;;;;;18.00;89.10;;;;;;5087512;28;20300;-89
2022/12/24 11:44:22;;;;;;;;;;;17.90;89.70;;;;;;5085018;28;20320;-90
2022/12/24 11:46:51;;;;;;;;;;;17.80;90.50;;;;;;5067368;28;20026;-90
2022/12/24 11:49:24;;;;;;;;;;;17.70;90.60;;;;;;5053040;28;20254;-90
2022/12/24 11:52:01;;;;;;;;;;;17.70;90.60;;;;;;5086866;28;19909;-90
2022/12/24 11:54:29;;;;;;;;;;;17.60;90.90;;;;;;5053963;28;19909;-89
2022/12/24 11:56:56;;;;;;;;;;;17.50;91.20;;;;;;5087203;28;20101;-90
2022/12/24 11:59:30;;;;;;;;;;;17.50;91.40;;;;;;5052833;28;19971;-90
2022/12/24 12:01:59;;;;;;;;;;;17.40;91.80;;;;;;5086843;28;19934;-90
2022/12/24 12:04:27;;;;;;;;;;;17.40;92.10;;;;;;5087485;28;19920;-90
2022/12/24 12:07:03;;;;;;;;;;;17.30;92.70;;;;;;5085438;28;19909;-90
2022/12/24 12:09:31;;;;;;;;;;;17.30;92.60;;;;;;5092451;28;20331;-90
2022/12/24 12:12:03;;;;;;;;;;;17.20;92.70;;;;;;5085321;28;19988;-90
2022/12/24 12:14:33;;;;;;;;;;;17.20;92.90;;;;;;5084447;28;19992;-90
2022/12/24 12:17:05;;;;;;;;;;;17.20;93.10;;;;;;5084042;28;19909;-89
2022/12/24 12:19:38;;;;;;;;;;;17.20;93.60;;;;;;5085255;28;19916;-90
2022/12/24 12:22:06;;;;;;;;;;;17.10;93.70;;;;;;5070546;28;19916;-89
2022/12/24 12:24:42;;;;;;;;;;;17.10;93.80;;;;;;5085810;28;20474;-90
2022/12/24 12:27:16;;;;;;;;;;;17.10;93.80;;;;;;5052879;28;19955;-89
2022/12/24 12:29:45;;;;;;;;;;;17.00;93.90;;;;;;5051121;28;19915;-89
2022/12/24 12:32:15;;;;;;;;;;;17.10;94.00;;;;;;5087282;28;19916;-89
2022/12/24 12:34:50;;;;;;;;;;;17.10;94.00;;;;;;5088076;28;20258;-89
2022/12/24 12:37:19;;;;;;;;;;;17.10;93.90;;;;;;5086828;28;19913;-90
2022/12/24 12:39:45;;;;;;;;;;;17.20;93.80;;;;;;5088426;28;20244;-90
2022/12/24 12:42:19;;;;;;;;;;;17.20;93.70;;;;;;5054864;28;19912;-89
2022/12/24 12:45:05;;;;;;;;;;;17.30;93.60;;;;;;5053243;28;19959;-90
2022/12/24 12:47:30;;;;;;;;;;;17.40;93.40;;;;;;5085803;28;20191;-90
2022/12/24 12:50:08;;;;;;;;;;;17.40;93.90;;;;;;5052909;28;19914;-89
2022/12/24 12:52:37;;;;;;;;;;;17.40;93.90;;;;;;5086428;28;19909;-89
2022/12/24 12:55:17;;;;;;;;;;;17.40;93.90;;;;;;5053479;28;19938;-89
2022/12/24 12:57:43;;;;;;;;;;;17.40;93.80;;;;;;5084776;28;20030;-89
2022/12/24 13:00:10;;;;;;;;;;;17.40;93.60;;;;;;5086333;28;20274;-89
2022/12/24 13:02:39;;;;;;;;;;;17.50;93.50;;;;;;5070700;28;20197;-90
2022/12/24 13:05:37;;;;;;;;;;;17.50;93.30;;;;;;5053561;28;19919;-89
2022/12/24 13:08:13;;;;;;;;;;;17.40;93.20;;;;;;5017081;28;19908;-89
2022/12/24 13:10:50;;;;;;;;;;;17.40;93.30;;;;;;5049123;28;19912;-89
2022/12/24 13:13:16;;;;;;;;;;;17.30;93.30;;;;;;5084835;28;19913;-89
2022/12/24 13:16:00;;;;;;;;;;;17.30;93.40;;;;;;5051172;28;19908;-88
2022/12/24 13:18:25;;;;;;;;;;;17.30;93.50;;;;;;5084793;28;19987;-89
2022/12/24 13:20:52;;;;;;;;;;;17.30;93.50;;;;;;5050608;28;20003;-88
2022/12/24 13:23:19;;;;;;;;;;;17.30;93.60;;;;;;5085470;28;20136;-88
2022/12/24 13:25:46;;;;;;;;;;;17.30;93.70;;;;;;5084829;28;19919;-88
2022/12/24 13:28:21;;;;;;;;;;;17.30;93.70;;;;;;5086866;28;19920;-89
2022/12/24 13:31:10;;;;;;;;;;;17.30;93.80;;;;;;5051042;28;20013;-89
2022/12/24 13:33:35;;;;;;;;;;;17.20;94.00;;;;;;5044514;28;19917;-88
2022/12/24 13:36:01;;;;;;;;;;;17.10;94.10;;;;;;5071723;28;19908;-88
2022/12/24 13:38:30;;;;;;;;;;;17.10;94.20;;;;;;5054768;28;19908;-88
2022/12/24 13:41:15;;;;;;;;;;;17.10;94.30;;;;;;5086443;28;19919;-88
2022/12/24 13:44:00;;;;;;;;;;;17.00;94.40;;;;;;5070031;28;20025;-88
2022/12/24 13:46:44;;;;;;;;;;;17.00;94.40;;;;;;5086612;28;20171;-89
2022/12/24 13:49:11;;;;;;;;;;;17.00;94.50;;;;;;5086822;28;19909;-89
2022/12/24 13:51:37;;;;;;;;;;;17.00;94.40;;;;;;5085424;28;19912;-89
2022/12/24 13:54:02;;;;;;;;;;;17.00;94.40;;;;;;5053413;28;19909;-88
2022/12/24 13:56:30;;;;;;;;;;;17.00;94.50;;;;;;5054263;28;19908;-89
2022/12/24 13:59:09;;;;;;;;;;;17.00;94.40;;;;;;5086163;28;20305;-89
2022/12/24 14:01:37;;;;;;;;;;;17.10;94.30;;;;;;5069247;28;20194;-89
2022/12/24 14:04:04;;;;;;;;;;;17.10;94.20;;;;;;5075459;28;20088;-89
2022/12/24 14:06:31;;;;;;;;;;;17.10;94.00;;;;;;5089301;28;19916;-89
2022/12/24 14:09:04;;;;;;;;;;;17.20;94.00;;;;;;5090786;28;20189;-88
2022/12/24 14:11:50;;;;;;;;;;;17.20;93.90;;;;;;5090668;28;20070;-88
2022/12/24 14:14:28;;;;;;;;;;;17.30;93.70;;;;;;5088332;28;20190;-89
2022/12/24 14:16:56;;;;;;;;;;;17.30;93.60;;;;;;5088635;28;19997;-88
2022/12/24 14:19:22;;;;;;;;;;;17.30;93.50;;;;;;5088952;28;19991;-88
2022/12/24 14:21:58;;;;;;;;;;;17.30;93.50;;;;;;5089545;28;19908;-88
2022/12/24 14:24:30;;;;;;;;;;;17.30;93.50;;;;;;5089193;28;20250;-89
2022/12/24 14:27:05;;;;;;;;;;;17.30;93.40;;;;;;5088535;28;20262;-89
2022/12/24 14:29:33;;;;;;;;;;;17.30;93.40;;;;;;5088661;28;19958;-89
2022/12/24 14:32:02;;;;;;;;;;;17.30;93.50;;;;;;5088621;28;19909;-89
2022/12/24 14:34:28;;;;;;;;;;;17.20;93.40;;;;;;5085752;28;20282;-88